createdAt,value
2022-11-16T00:02:13.317Z,4.65
2022-11-16T00:04:43.081Z,5.10
2022-11-16T00:07:13.048Z,4.25
2022-11-16T00:09:45.118Z,4.82
2022-11-16T00:12:14.815Z,4.38
2022-11-16T00:14:44.284Z,4.28
2022-11-16T00:17:13.799Z,4.35
2022-11-16T00:19:43.270Z,4.70
2022-11-16T00:22:12.737Z,4.00
2022-11-16T00:24:42.173Z,4.40
2022-11-16T00:27:14.316Z,4.35
2022-11-16T00:29:43.830Z,3.97
2022-11-16T00:32:13.346Z,4.93
2022-11-16T00:34:42.976Z,4.00
2022-11-16T00:37:12.433Z,4.20
2022-11-16T00:39:41.958Z,4.75
2022-11-16T00:42:17.848Z,4.10
2022-11-16T00:44:47.364Z,4.38
2022-11-16T00:47:16.819Z,4.40
2022-11-16T00:49:46.381Z,5.05
2022-11-16T00:52:16.110Z,4.30
2022-11-16T00:54:46.370Z,5.32
2022-11-16T00:57:18.759Z,5.07
2022-11-16T00:59:48.674Z,4.90
2022-11-16T01:02:18.538Z,4.22
2022-11-16T01:04:48.029Z,4.88
2022-11-16T01:07:17.589Z,4.82
2022-11-16T01:09:47.375Z,4.40
2022-11-16T01:12:22.345Z,4.70
2022-11-16T01:14:51.928Z,4.60
2022-11-16T01:17:21.370Z,4.78
2022-11-16T01:19:50.899Z,4.88
2022-11-16T01:22:20.382Z,5.10
2022-11-16T01:24:50.021Z,5.28
2022-11-16T01:27:22.167Z,5.47
2022-11-16T01:29:51.754Z,5.40
2022-11-16T01:32:21.247Z,5.43
2022-11-16T01:34:51.357Z,5.05
2022-11-16T01:37:33.543Z,5.95
2022-11-16T01:40:03.840Z,5.47
2022-11-16T01:42:36.796Z,5.32
2022-11-16T01:45:08.821Z,5.25
2022-11-16T01:47:38.359Z,5.10
2022-11-16T01:50:11.763Z,5.88
2022-11-16T01:52:47.411Z,5.63
2022-11-16T01:55:17.474Z,6.53
2022-11-16T01:58:09.790Z,5.15
2022-11-16T02:00:41.992Z,5.60
2022-11-16T02:03:30.116Z,5.18
2022-11-16T02:06:08.301Z,5.65
2022-11-16T02:08:58.832Z,5.32
2022-11-16T02:11:39.989Z,6.35
2022-11-16T02:14:20.290Z,5.57
2022-11-16T02:16:53.103Z,5.25
2022-11-16T02:19:46.664Z,5.43
2022-11-16T02:22:23.056Z,5.65
2022-11-16T02:24:59.102Z,6.03
2022-11-16T02:27:49.861Z,5.88
2022-11-16T02:30:23.093Z,5.47
2022-11-16T02:32:54.486Z,6.32
2022-11-16T02:35:26.670Z,6.28
2022-11-16T02:38:00.723Z,5.82
2022-11-16T02:40:33.323Z,5.72
2022-11-16T02:43:05.939Z,5.72
2022-11-16T02:45:41.394Z,5.70
2022-11-16T02:48:13.030Z,6.82
2022-11-16T02:50:43.839Z,5.95
2022-11-16T02:53:13.328Z,6.63
2022-11-16T02:55:42.791Z,6.65
2022-11-16T02:58:15.270Z,6.03
2022-11-16T03:00:50.171Z,5.78
2022-11-16T03:03:25.398Z,6.10
2022-11-16T03:05:56.217Z,6.05
2022-11-16T03:08:29.440Z,5.72
2022-11-16T03:11:16.202Z,5.82
2022-11-16T03:13:46.152Z,6.15
2022-11-16T03:16:20.260Z,5.80
2022-11-16T03:18:50.841Z,5.40
2022-11-16T03:21:23.909Z,5.85
2022-11-16T03:23:53.608Z,5.07
2022-11-16T03:26:25.486Z,5.50
2022-11-16T03:28:58.900Z,5.45
2022-11-16T03:31:32.682Z,5.25
2022-11-16T03:34:06.325Z,6.20
2022-11-16T03:36:38.797Z,5.45
2022-11-16T03:39:11.142Z,5.22
2022-11-16T03:41:43.701Z,5.80
2022-11-16T03:44:14.681Z,5.22
2022-11-16T03:46:47.917Z,5.10
2022-11-16T03:49:18.841Z,5.53
2022-11-16T03:51:48.302Z,6.18
2022-11-16T03:54:18.027Z,6.28
2022-11-16T03:56:47.564Z,5.72
2022-11-16T03:59:17.076Z,6.00
2022-11-16T04:01:50.692Z,5.93
2022-11-16T04:04:32.660Z,6.22
2022-11-16T04:07:14.979Z,6.15
2022-11-16T04:09:56.899Z,5.63
2022-11-16T04:12:39.084Z,6.10
2022-11-16T04:15:23.966Z,6.07
2022-11-16T04:18:08.897Z,5.80
2022-11-16T04:20:51.170Z,5.55
2022-11-16T04:23:34.017Z,5.15
2022-11-16T04:26:05.428Z,6.43
2022-11-16T04:28:34.970Z,5.35
2022-11-16T04:31:19.961Z,5.32
2022-11-16T04:34:19.262Z,5.53
2022-11-16T04:37:05.665Z,5.38
2022-11-16T04:39:35.379Z,5.53
2022-11-16T04:42:22.326Z,5.43
2022-11-16T04:45:06.724Z,5.90
2022-11-16T04:47:43.250Z,4.97
2022-11-16T04:50:15.421Z,5.68
2022-11-16T04:52:45.270Z,5.80
2022-11-16T04:55:16.434Z,6.05
2022-11-16T04:57:48.042Z,5.78
2022-11-16T05:00:19.194Z,5.85
2022-11-16T05:02:49.009Z,6.18
2022-11-16T05:05:21.362Z,5.93
2022-11-16T05:07:52.067Z,5.90
2022-11-16T05:10:27.372Z,6.10
2022-11-16T05:12:57.628Z,6.88
2022-11-16T05:15:28.062Z,6.25
2022-11-16T05:17:58.914Z,6.40
2022-11-16T05:20:44.018Z,6.88
2022-11-16T05:23:33.607Z,5.63
2022-11-16T05:26:09.536Z,6.47
2022-11-16T05:28:39.122Z,6.38
2022-11-16T05:31:09.478Z,6.20
2022-11-16T05:33:39.282Z,6.38
2022-11-16T05:36:12.222Z,5.68
2022-11-16T05:38:42.243Z,5.85
2022-11-16T05:41:11.695Z,6.18
2022-11-16T05:43:41.208Z,6.82
2022-11-16T05:46:23.714Z,6.55
2022-11-16T05:48:53.643Z,5.93
2022-11-16T05:51:25.711Z,5.88
2022-11-16T05:53:56.797Z,6.07
2022-11-16T05:56:26.951Z,6.07
2022-11-16T05:58:57.198Z,6.22
2022-11-16T06:01:28.110Z,6.45
2022-11-16T06:03:57.604Z,6.50
2022-11-16T06:06:29.963Z,6.85
2022-11-16T06:08:59.843Z,6.78
2022-11-16T06:11:35.325Z,6.28
2022-11-16T06:14:05.955Z,6.53
2022-11-16T06:16:36.991Z,7.13
2022-11-16T06:19:12.837Z,6.82
2022-11-16T06:21:44.989Z,7.10
2022-11-16T06:24:20.244Z,7.07
2022-11-16T06:26:50.008Z,7.15
2022-11-16T06:29:20.218Z,6.55
2022-11-16T06:31:49.767Z,6.57
2022-11-16T06:34:19.394Z,7.57
2022-11-16T06:36:51.667Z,8.38
2022-11-16T06:39:22.756Z,7.80
2022-11-16T06:41:52.707Z,7.28
2022-11-16T06:44:22.206Z,8.07
2022-11-16T06:47:00.429Z,9.40
2022-11-16T06:49:30.726Z,7.90
2022-11-16T06:52:06.623Z,7.72
2022-11-16T06:54:36.255Z,7.40
2022-11-16T06:57:05.776Z,8.63
2022-11-16T06:59:35.352Z,9.23
2022-11-16T07:02:04.979Z,12.70
2022-11-16T07:04:36.277Z,9.93
2022-11-16T07:07:09.993Z,13.60
2022-11-16T07:09:40.961Z,10.80
2022-11-16T07:12:10.946Z,12.05
2022-11-16T07:14:42.587Z,11.80
2022-11-16T07:17:13.641Z,10.57
2022-11-16T07:19:43.150Z,9.10
2022-11-16T07:22:15.851Z,8.25
2022-11-16T07:24:46.055Z,8.73
2022-11-16T07:27:15.986Z,8.27
2022-11-16T07:29:48.303Z,8.18
2022-11-16T07:32:47.091Z,7.82
2022-11-16T07:35:23.599Z,7.43
2022-11-16T07:37:55.985Z,7.38
2022-11-16T07:40:25.595Z,6.95
2022-11-16T07:42:55.534Z,7.72
2022-11-16T07:45:34.587Z,8.05
2022-11-16T07:48:09.362Z,7.30
2022-11-16T07:51:18.852Z,7.50
2022-11-16T07:54:09.064Z,7.53
2022-11-16T07:56:39.262Z,8.05
2022-11-16T07:59:09.042Z,8.25
2022-11-16T08:01:43.369Z,7.68
2022-11-16T08:04:15.457Z,7.72
2022-11-16T08:06:46.948Z,8.18
2022-11-16T08:09:19.390Z,7.28
2022-11-16T08:11:51.125Z,6.78
2022-11-16T08:14:21.505Z,7.40
2022-11-16T08:16:52.793Z,7.85
2022-11-16T08:19:22.423Z,7.18
2022-11-16T08:21:51.957Z,7.82
2022-11-16T08:24:25.297Z,8.35
2022-11-16T08:26:55.213Z,7.38
2022-11-16T08:29:24.695Z,7.53
2022-11-16T08:31:55.601Z,7.13
2022-11-16T08:34:25.829Z,7.47
2022-11-16T08:37:00.422Z,6.93
2022-11-16T08:39:42.454Z,8.55
2022-11-16T08:42:12.584Z,7.90
2022-11-16T08:44:46.146Z,8.32
2022-11-16T08:47:17.776Z,8.07
2022-11-16T08:50:00.310Z,8.10
2022-11-16T08:52:32.755Z,7.82
2022-11-16T08:55:06.696Z,7.53
2022-11-16T08:57:36.222Z,7.80
2022-11-16T09:00:11.309Z,7.88
2022-11-16T09:02:41.148Z,8.73
2022-11-16T09:05:13.088Z,7.82
2022-11-16T09:07:44.354Z,7.45
2022-11-16T09:10:19.086Z,8.20
2022-11-16T09:12:48.694Z,7.05
2022-11-16T09:15:19.442Z,7.20
2022-11-16T09:17:49.202Z,6.85
2022-11-16T09:20:18.865Z,7.18
2022-11-16T09:22:48.337Z,6.85
2022-11-16T09:25:20.436Z,7.55
2022-11-16T09:27:50.531Z,7.43
2022-11-16T09:30:21.337Z,6.22
2022-11-16T09:32:50.894Z,6.35
2022-11-16T09:35:20.990Z,6.85
2022-11-16T09:37:50.717Z,6.30
2022-11-16T09:40:23.086Z,5.50
2022-11-16T09:42:59.188Z,6.97
2022-11-16T09:45:32.949Z,5.90
2022-11-16T09:48:04.838Z,6.75
2022-11-16T09:50:37.214Z,6.88
2022-11-16T09:53:21.065Z,6.68
2022-11-16T09:55:54.758Z,5.60
2022-11-16T09:58:25.956Z,6.00
2022-11-16T10:00:59.117Z,5.72
2022-11-16T10:03:32.352Z,5.70
2022-11-16T10:06:04.049Z,6.28
2022-11-16T10:08:44.768Z,6.82
2022-11-16T10:11:27.098Z,7.22
2022-11-16T10:14:03.845Z,8.82
2022-11-16T10:16:38.276Z,7.82
2022-11-16T10:19:13.802Z,8.90
2022-11-16T10:21:49.131Z,7.53
2022-11-16T10:24:36.537Z,7.28
2022-11-16T10:27:19.243Z,6.80
2022-11-16T10:29:53.427Z,6.35
2022-11-16T10:32:28.244Z,6.30
2022-11-16T10:34:59.032Z,6.40
2022-11-16T10:37:32.115Z,5.40
2022-11-16T10:40:01.874Z,5.57
2022-11-16T10:42:36.583Z,6.10
2022-11-16T10:45:09.597Z,5.50
2022-11-16T10:47:42.764Z,5.65
2022-11-16T10:50:22.080Z,4.85
2022-11-16T10:52:51.567Z,4.47
2022-11-16T10:55:21.360Z,3.85
2022-11-16T10:58:00.833Z,5.18
2022-11-16T11:00:38.956Z,5.15
2022-11-16T11:03:10.817Z,4.47
2022-11-16T11:05:48.687Z,5.03
2022-11-16T11:08:27.449Z,4.93
2022-11-16T11:11:24.385Z,4.68
2022-11-16T11:14:12.103Z,5.10
2022-11-16T11:16:41.844Z,5.05
2022-11-16T11:19:21.312Z,5.18
2022-11-16T11:21:51.382Z,5.40
2022-11-16T11:27:10.761Z,5.60
2022-11-16T11:29:45.047Z,4.75
2022-11-16T11:32:23.599Z,4.78
2022-11-16T11:34:54.924Z,4.88
2022-11-16T11:37:26.277Z,5.13
2022-11-16T11:40:07.659Z,4.80
2022-11-16T11:42:37.527Z,4.90
2022-11-16T11:45:11.880Z,5.55
2022-11-16T11:47:58.623Z,5.22
2022-11-16T11:50:31.491Z,5.32
2022-11-16T11:53:05.309Z,5.30
2022-11-16T11:55:34.822Z,4.97
2022-11-16T11:58:04.758Z,5.22
2022-11-16T12:00:41.034Z,5.35
2022-11-16T12:03:25.601Z,5.22
2022-11-16T12:06:02.263Z,4.95
2022-11-16T12:08:43.852Z,6.25
2022-11-16T12:11:16.436Z,5.80
2022-11-16T12:13:57.951Z,5.55
2022-11-16T12:16:33.669Z,5.85
2022-11-16T12:19:19.484Z,6.03
2022-11-16T12:21:55.032Z,5.15
2022-11-16T12:24:34.592Z,5.80
2022-11-16T12:27:08.759Z,5.85
2022-11-16T12:29:42.635Z,5.65
2022-11-16T12:32:20.385Z,5.30
2022-11-16T12:34:59.564Z,5.60
2022-11-16T12:37:33.637Z,5.88
2022-11-16T12:40:12.966Z,4.70
2022-11-16T12:42:45.226Z,5.93
2022-11-16T12:45:33.537Z,6.03
2022-11-16T12:48:14.723Z,6.35
2022-11-16T12:50:48.142Z,7.45
2022-11-16T12:53:32.909Z,6.85
2022-11-16T12:56:09.278Z,5.63
2022-11-16T12:58:44.494Z,5.30
2022-11-16T13:01:19.992Z,5.55
2022-11-16T13:03:54.713Z,5.40
2022-11-16T13:06:28.729Z,5.95
2022-11-16T13:09:01.773Z,5.47
2022-11-16T13:11:33.359Z,5.60
2022-11-16T13:14:04.158Z,5.43
2022-11-16T13:16:34.043Z,6.28
2022-11-16T13:19:06.918Z,5.28
2022-11-16T13:21:43.935Z,6.18
2022-11-16T13:24:27.447Z,6.20
2022-11-16T13:26:59.840Z,5.38
2022-11-16T13:29:35.219Z,6.65
2022-11-16T13:32:08.534Z,7.10
2022-11-16T13:34:41.815Z,5.95
2022-11-16T13:37:26.282Z,5.88
2022-11-16T13:40:10.935Z,6.68
2022-11-16T13:42:44.050Z,5.88
2022-11-16T13:45:18.974Z,6.78
2022-11-16T13:47:51.689Z,6.63
2022-11-16T13:50:25.544Z,5.10
2022-11-16T13:53:57.626Z,5.30
2022-11-16T13:55:57.848Z,5.15
2022-11-16T13:58:27.978Z,5.05
2022-11-16T14:01:00.305Z,4.80
2022-11-16T14:03:38.393Z,5.10
2022-11-16T14:06:31.331Z,5.97
2022-11-16T14:09:01.419Z,5.35
2022-11-16T14:11:35.229Z,6.20
2022-11-16T14:14:05.866Z,5.47
2022-11-16T14:16:50.272Z,4.95
2022-11-16T14:19:37.376Z,4.80
2022-11-16T14:22:11.107Z,4.78
2022-11-16T14:24:43.450Z,5.00
2022-11-16T14:27:17.846Z,6.00
2022-11-16T14:29:53.845Z,5.47
2022-11-16T14:32:25.020Z,5.57
2022-11-16T14:34:55.874Z,6.05
2022-11-16T14:37:36.283Z,5.70
2022-11-16T14:40:09.284Z,5.43
2022-11-16T14:42:54.668Z,5.15
2022-11-16T14:45:30.726Z,5.93
2022-11-16T14:48:03.595Z,5.25
2022-11-16T14:50:36.696Z,5.88
2022-11-16T14:53:15.157Z,6.30
2022-11-16T14:55:45.025Z,6.93
2022-11-16T14:58:20.228Z,6.47
2022-11-16T15:00:55.368Z,6.68
2022-11-16T15:03:25.575Z,6.53
2022-11-16T15:05:55.046Z,6.97
2022-11-16T15:08:32.189Z,7.40
2022-11-16T15:11:02.100Z,6.85
2022-11-16T15:13:31.730Z,7.05
2022-11-16T15:16:11.350Z,6.93
2022-11-16T15:18:40.888Z,7.28
2022-11-16T15:21:23.198Z,7.63
2022-11-16T15:26:46.113Z,6.30
2022-11-16T15:29:17.317Z,6.28
2022-11-16T15:31:47.046Z,6.18
2022-11-16T15:34:17.033Z,6.70
2022-11-16T15:36:46.713Z,6.32
2022-11-16T15:39:20.491Z,6.75
2022-11-16T15:41:50.361Z,6.75
2022-11-16T15:44:20.802Z,6.43
2022-11-16T15:46:51.726Z,7.32
2022-11-16T15:49:25.815Z,6.40
2022-11-16T15:51:55.377Z,6.50
2022-11-16T15:54:28.394Z,6.80
2022-11-16T15:56:58.769Z,7.13
2022-11-16T15:59:29.973Z,6.28
2022-11-16T16:01:59.522Z,6.53
2022-11-16T16:04:29.393Z,6.45
2022-11-16T16:06:59.631Z,7.10
2022-11-16T16:09:32.440Z,7.05
2022-11-16T16:12:18.378Z,7.38
2022-11-16T16:14:48.602Z,6.82
2022-11-16T16:17:24.899Z,6.85
2022-11-16T16:19:57.213Z,6.82
2022-11-16T16:22:28.244Z,6.65
2022-11-16T16:25:01.558Z,7.03
2022-11-16T16:27:32.113Z,7.45
2022-11-16T16:30:05.468Z,7.13
2022-11-16T16:32:35.534Z,7.47
2022-11-16T16:35:06.595Z,7.85
2022-11-16T16:37:37.240Z,7.95
2022-11-16T16:40:10.318Z,7.47
2022-11-16T16:42:40.990Z,7.43
2022-11-16T16:45:15.623Z,7.75
2022-11-16T16:47:45.159Z,7.22
2022-11-16T16:50:14.671Z,6.80
2022-11-16T16:52:44.189Z,8.55
2022-11-16T16:55:16.348Z,8.93
2022-11-16T16:57:45.861Z,9.35
2022-11-16T17:00:15.970Z,8.70
2022-11-16T17:02:45.606Z,9.05
2022-11-16T17:05:15.105Z,9.00
2022-11-16T17:07:44.663Z,10.55
2022-11-16T17:10:16.735Z,10.55
2022-11-16T17:12:46.266Z,8.88
2022-11-16T17:15:19.359Z,9.05
2022-11-16T17:17:49.374Z,9.85
2022-11-16T17:20:19.242Z,9.93
2022-11-16T17:22:48.881Z,8.07
2022-11-16T17:25:21.127Z,8.20
2022-11-16T17:27:51.180Z,11.55
2022-11-16T17:30:20.608Z,8.57
2022-11-16T17:32:52.201Z,8.05
2022-11-16T17:35:22.353Z,8.10
2022-11-16T17:37:51.887Z,7.50
2022-11-16T17:40:24.015Z,8.55
2022-11-16T17:42:53.761Z,7.63
2022-11-16T17:45:23.274Z,8.48
2022-11-16T17:47:52.795Z,7.95
2022-11-16T17:50:22.398Z,6.93
2022-11-16T17:52:51.943Z,6.88
2022-11-16T17:55:24.063Z,7.45
2022-11-16T17:57:53.832Z,7.22
2022-11-16T18:00:23.417Z,7.15
2022-11-16T18:02:52.921Z,6.80
2022-11-16T18:05:22.383Z,6.68
2022-11-16T18:07:52.280Z,7.18
2022-11-16T18:10:24.422Z,7.35
2022-11-16T18:12:55.001Z,7.50
2022-11-16T18:15:28.952Z,7.20
2022-11-16T18:17:59.016Z,6.43
2022-11-16T18:20:29.556Z,6.10
2022-11-16T18:22:59.275Z,6.95
2022-11-16T18:25:31.434Z,7.25
2022-11-16T18:28:01.011Z,7.05
2022-11-16T18:30:30.508Z,6.35
2022-11-16T18:33:00.011Z,6.68
2022-11-16T18:35:29.588Z,7.60
2022-11-16T18:37:59.136Z,8.27
2022-11-16T18:40:31.380Z,8.40
2022-11-16T18:43:01.035Z,7.32
2022-11-16T18:45:30.669Z,7.35
2022-11-16T18:48:00.209Z,7.15
2022-11-16T18:50:29.731Z,8.15
2022-11-16T18:52:59.470Z,11.38
2022-11-16T18:55:31.772Z,12.20
2022-11-16T18:58:01.387Z,11.20
2022-11-16T19:00:30.923Z,10.02
2022-11-16T19:03:00.470Z,9.02
2022-11-16T19:05:29.991Z,10.48
2022-11-16T19:07:59.639Z,8.93
2022-11-16T19:10:31.794Z,9.20
2022-11-16T19:13:01.347Z,8.25
2022-11-16T19:15:50.258Z,8.90
2022-11-16T19:18:21.856Z,7.85
2022-11-16T19:20:51.757Z,8.00
2022-11-16T19:23:21.202Z,7.22
2022-11-16T19:26:01.873Z,8.32
2022-11-16T19:28:31.443Z,7.22
2022-11-16T19:31:00.975Z,8.55
2022-11-16T19:33:30.582Z,12.57
2022-11-16T19:36:00.112Z,9.07
2022-11-16T19:38:29.632Z,8.48
2022-11-16T19:41:01.797Z,8.68
2022-11-16T19:43:31.490Z,12.20
2022-11-16T19:46:04.488Z,13.95
2022-11-16T19:48:34.810Z,13.02
2022-11-16T19:51:08.382Z,15.18
2022-11-16T19:53:38.321Z,16.27
2022-11-16T19:56:12.871Z,14.88
2022-11-16T19:58:42.487Z,12.73
2022-11-16T20:01:13.448Z,15.20
2022-11-16T20:03:43.380Z,16.05
2022-11-16T20:06:13.804Z,14.45
2022-11-16T20:08:44.142Z,11.45
2022-11-16T20:11:17.897Z,15.93
2022-11-16T20:13:47.470Z,18.42
2022-11-16T20:16:16.975Z,18.10
2022-11-16T20:18:47.674Z,22.15
2022-11-16T20:21:20.269Z,19.25
2022-11-16T20:23:49.888Z,17.45
2022-11-16T20:26:22.677Z,14.32
2022-11-16T20:28:53.226Z,9.43
2022-11-16T20:31:23.966Z,9.02
2022-11-16T20:33:53.974Z,8.57
2022-11-16T20:36:23.962Z,8.02
2022-11-16T20:38:53.754Z,13.80
2022-11-16T20:41:26.581Z,16.73
2022-11-16T20:43:56.935Z,15.38
2022-11-16T20:46:27.275Z,19.67
2022-11-16T20:48:57.449Z,15.93
2022-11-16T20:51:26.966Z,16.65
2022-11-16T20:53:56.505Z,17.83
2022-11-16T20:56:28.847Z,15.52
2022-11-16T20:58:59.586Z,18.05
2022-11-16T21:01:32.097Z,14.80
2022-11-16T21:04:02.532Z,13.50
2022-11-16T21:06:32.346Z,12.02
2022-11-16T21:09:03.902Z,11.40
2022-11-16T21:11:56.629Z,9.80
2022-11-16T21:14:23.751Z,7.75
2022-11-16T21:16:53.290Z,9.30
2022-11-16T21:19:22.980Z,13.23
2022-11-16T21:21:52.491Z,13.75
2022-11-16T21:24:24.904Z,10.25
2022-11-16T21:26:57.106Z,10.27
2022-11-16T21:29:27.333Z,8.85
2022-11-16T21:31:56.870Z,14.30
2022-11-16T21:34:27.942Z,14.55
2022-11-16T21:36:57.484Z,11.13
2022-11-16T21:39:27.804Z,10.20
2022-11-16T21:42:00.036Z,8.88
2022-11-16T21:44:42.030Z,7.50
2022-11-16T21:47:11.999Z,6.80
2022-11-16T21:50:02.417Z,8.02
2022-11-16T21:52:31.779Z,8.50
2022-11-16T21:55:04.096Z,10.00
2022-11-16T21:57:36.283Z,10.50
2022-11-16T22:00:06.432Z,9.80
2022-11-16T22:02:40.983Z,7.10
2022-11-16T22:05:23.791Z,6.50
2022-11-16T22:07:53.581Z,6.78
2022-11-16T22:10:23.306Z,7.32
2022-11-16T22:12:55.427Z,5.85
2022-11-16T22:15:25.057Z,6.05
2022-11-16T22:17:54.513Z,6.35
2022-11-16T22:20:24.091Z,5.78
2022-11-16T22:22:53.611Z,6.20
2022-11-16T22:25:23.510Z,6.30
2022-11-16T22:28:19.643Z,5.43
2022-11-16T22:30:50.195Z,5.60
2022-11-16T22:33:21.400Z,4.95
2022-11-16T22:35:50.881Z,6.00
2022-11-16T22:38:20.350Z,5.03
2022-11-16T22:40:53.764Z,5.82
2022-11-16T22:43:26.808Z,5.00
2022-11-16T22:45:59.536Z,4.90
2022-11-16T22:48:33.149Z,4.88
2022-11-16T22:51:09.520Z,5.03
2022-11-16T22:53:39.247Z,5.47
2022-11-16T22:56:09.756Z,5.18
2022-11-16T22:58:42.118Z,5.22
2022-11-16T23:01:12.205Z,5.15
2022-11-16T23:03:41.766Z,5.43
2022-11-16T23:06:11.686Z,5.38
2022-11-16T23:08:41.609Z,5.15
2022-11-16T23:11:29.890Z,5.28
2022-11-16T23:14:14.615Z,4.97
2022-11-16T23:16:44.670Z,5.65
2022-11-16T23:19:27.283Z,7.78
2022-11-16T23:22:09.554Z,6.10
2022-11-16T23:24:51.518Z,5.95
2022-11-16T23:27:33.602Z,5.38
2022-11-16T23:30:12.125Z,6.28
2022-11-16T23:32:42.505Z,6.40
2022-11-16T23:35:12.504Z,5.13
2022-11-16T23:37:55.337Z,6.10
2022-11-16T23:40:26.210Z,6.68
2022-11-16T23:43:08.625Z,5.82
2022-11-16T23:45:40.955Z,5.50
2022-11-16T23:48:10.978Z,5.65
2022-11-16T23:50:40.521Z,3.88
2022-11-16T23:53:10.924Z,3.85
2022-11-16T23:55:41.115Z,4.32
2022-11-16T23:58:14.270Z,3.63
